Time;durP1;ratioP1;P1;durP2;ratioP2;P2;SDS_P1;SDS_P2;PMS_P1;PMS_P2;Temp;Humidity;BMP_temperature;BMP_pressure;BME280_temperature;BME280_humidity;BME280_pressure;Samples;Min_cycle;Max_cycle;Signal;HPM_P1;HPM_P2
2022/05/19 00:02:12;;;;;;;1999.90;999.90;;;;;;;;;;5015154;28;21188;-69
2022/05/19 00:04:40;;;;;;;1999.90;999.90;;;;;;;;;;5015667;28;20485;-70
2022/05/19 00:07:08;;;;;;;1999.90;999.90;;;;;;;;;;5041023;28;20399;-69
2022/05/19 00:09:36;;;;;;;1999.90;999.90;;;;;;;;;;5022821;28;20619;-69
2022/05/19 00:12:05;;;;;;;1999.90;999.90;;;;;;;;;;5019175;28;20969;-71
2022/05/19 00:14:32;;;;;;;1999.90;999.90;;;;;;;;;;5021696;28;20450;-70
2022/05/19 00:17:02;;;;;;;1999.90;999.90;;;;;;;;;;5022938;28;20402;-70
2022/05/19 00:19:29;;;;;;;1999.90;999.90;;;;;;;;;;5022439;28;20475;-70
2022/05/19 00:21:57;;;;;;;1999.90;999.90;;;;;;;;;;5019695;28;20457;-69
2022/05/19 00:24:28;;;;;;;1999.90;999.90;;;;;;;;;;5026092;28;20948;-70
2022/05/19 00:26:57;;;;;;;1999.90;999.90;;;;;;;;;;5023556;28;20664;-69
2022/05/19 00:29:24;;;;;;;1999.90;999.90;;;;;;;;;;5023009;28;21310;-71
2022/05/19 00:31:52;;;;;;;1999.90;999.90;;;;;;;;;;5018411;28;20457;-69
2022/05/19 00:34:21;;;;;;;1999.90;999.90;;;;;;;;;;5021567;28;21286;-70
2022/05/19 00:36:49;;;;;;;1999.90;999.90;;;;;;;;;;5016037;28;20601;-69
2022/05/19 00:39:16;;;;;;;1999.90;999.90;;;;;;;;;;5017726;28;20406;-69
2022/05/19 00:41:44;;;;;;;1999.90;999.90;;;;;;;;;;5017674;28;20912;-69
2022/05/19 00:44:12;;;;;;;1999.90;999.90;;;;;;;;;;5018469;28;20457;-69
2022/05/19 00:46:43;;;;;;;1999.90;999.90;;;;;;;;;;5013906;28;20476;-69
2022/05/19 00:49:14;;;;;;;1999.90;999.90;;;;;;;;;;5013501;28;20537;-68
2022/05/19 00:51:45;;;;;;;1999.90;999.90;;;;;;;;;;5033706;28;20447;-69
2022/05/19 00:54:15;;;;;;;1999.90;999.90;;;;;;;;;;5019656;28;20417;-69
2022/05/19 00:56:45;;;;;;;1999.90;999.90;;;;;;;;;;5013036;28;20401;-69
2022/05/19 00:59:19;;;;;;;1999.90;999.90;;;;;;;;;;5030250;28;20410;-69
2022/05/19 01:01:46;;;;;;;1999.90;999.90;;;;;;;;;;5015802;28;20413;-69
2022/05/19 01:04:19;;;;;;;1999.90;999.90;;;;;;;;;;5016946;28;20464;-69
2022/05/19 01:06:50;;;;;;;1999.90;999.90;;;;;;;;;;5015123;28;20448;-69
2022/05/19 01:09:17;;;;;;;1999.90;999.90;;;;;;;;;;5016924;28;20391;-69
2022/05/19 01:11:45;;;;;;;1999.90;999.90;;;;;;;;;;5015757;28;20527;-69
2022/05/19 01:14:13;;;;;;;1999.90;999.90;;;;;;;;;;5000612;28;20374;-70
2022/05/19 01:16:41;;;;;;;1999.90;999.90;;;;;;;;;;5014911;28;20422;-70
2022/05/19 01:19:15;;;;;;;1999.90;999.90;;;;;;;;;;5017687;28;20398;-69
2022/05/19 01:21:42;;;;;;;1999.90;999.90;;;;;;;;;;5018263;28;20414;-70
2022/05/19 01:24:16;;;;;;;1999.90;999.90;;;;;;;;;;5019177;28;20468;-69
2022/05/19 01:26:47;;;;;;;1999.90;999.90;;;;;;;;;;5016623;28;20399;-69
2022/05/19 01:29:15;;;;;;;1999.90;999.90;;;;;;;;;;5033378;28;20424;-70
2022/05/19 01:31:45;;;;;;;1999.90;999.90;;;;;;;;;;5017293;28;20408;-69
2022/05/19 01:34:13;;;;;;;1999.90;999.90;;;;;;;;;;5018548;28;20413;-70
2022/05/19 01:36:41;;;;;;;1999.90;999.90;;;;;;;;;;5019785;28;20933;-70
2022/05/19 01:39:13;;;;;;;1999.90;999.90;;;;;;;;;;5015376;28;20394;-70
2022/05/19 01:41:50;;;;;;;1999.90;999.90;;;;;;;;;;5016951;28;21234;-70
2022/05/19 01:44:24;;;;;;;1999.90;999.90;;;;;;;;;;5018354;28;21130;-70
2022/05/19 01:46:55;;;;;;;1999.90;999.90;;;;;;;;;;5015224;28;20392;-70
2022/05/19 01:49:27;;;;;;;1999.90;999.90;;;;;;;;;;5020229;28;20392;-69
2022/05/19 01:51:59;;;;;;;1999.90;999.90;;;;;;;;;;5016889;28;20418;-69
2022/05/19 01:54:30;;;;;;;1999.90;999.90;;;;;;;;;;5018525;28;20463;-69
2022/05/19 01:57:03;;;;;;;1999.90;999.90;;;;;;;;;;5014293;28;20449;-69
2022/05/19 01:59:34;;;;;;;1999.90;999.90;;;;;;;;;;5017407;28;20384;-68
2022/05/19 02:02:07;;;;;;;1999.90;999.90;;;;;;;;;;5012489;28;20472;-68
2022/05/19 02:04:39;;;;;;;1999.90;999.90;;;;;;;;;;5015177;28;20393;-68
2022/05/19 02:07:08;;;;;;;1999.90;999.90;;;;;;;;;;5015261;28;20422;-69
2022/05/19 02:09:41;;;;;;;1999.90;999.90;;;;;;;;;;5014340;28;20489;-68
2022/05/19 02:12:10;;;;;;;1999.90;999.90;;;;;;;;;;5013252;28;20410;-69
2022/05/19 02:14:40;;;;;;;1999.90;999.90;;;;;;;;;;5020677;28;20494;-69
2022/05/19 02:17:09;;;;;;;1999.90;999.90;;;;;;;;;;5013628;28;20416;-69
2022/05/19 02:19:38;;;;;;;1999.90;999.90;;;;;;;;;;5017560;28;20482;-70
2022/05/19 02:22:07;;;;;;;1999.90;999.90;;;;;;;;;;5033534;28;20447;-68
2022/05/19 02:24:35;;;;;;;1999.90;999.90;;;;;;;;;;5017361;28;21451;-67
2022/05/19 02:27:18;;;;;;;1999.90;999.90;;;;;;;;;;5017968;28;20412;-71
2022/05/19 02:29:47;;;;;;;1999.90;999.90;;;;;;;;;;5019038;28;20509;-70
2022/05/19 02:32:14;;;;;;;1999.90;999.90;;;;;;;;;;5016551;28;20460;-69
2022/05/19 02:34:42;;;;;;;1999.90;999.90;;;;;;;;;;5015804;28;21047;-69
2022/05/19 02:37:09;;;;;;;1999.90;999.90;;;;;;;;;;5019684;28;20875;-68
2022/05/19 02:39:37;;;;;;;1999.90;999.90;;;;;;;;;;5017984;28;20388;-69
2022/05/19 02:42:05;;;;;;;1999.90;999.90;;;;;;;;;;5019027;28;20686;-70
2022/05/19 02:44:32;;;;;;;1999.90;999.90;;;;;;;;;;5018273;28;20392;-69
2022/05/19 02:47:01;;;;;;;1999.90;999.90;;;;;;;;;;5018224;28;20916;-68
2022/05/19 02:49:29;;;;;;;1999.90;999.90;;;;;;;;;;5036215;28;20451;-68
2022/05/19 02:51:56;;;;;;;1999.90;999.90;;;;;;;;;;5019851;28;20439;-69
2022/05/19 02:54:24;;;;;;;1999.90;999.90;;;;;;;;;;5019553;28;20390;-69
2022/05/19 02:56:51;;;;;;;1999.90;999.90;;;;;;;;;;5017819;28;20398;-70
2022/05/19 02:59:19;;;;;;;1999.90;999.90;;;;;;;;;;5020552;28;20496;-70
2022/05/19 03:01:46;;;;;;;1999.90;999.90;;;;;;;;;;5019037;28;20821;-70
2022/05/19 03:04:15;;;;;;;1999.90;999.90;;;;;;;;;;5022522;28;20410;-70
2022/05/19 03:06:43;;;;;;;1999.90;999.90;;;;;;;;;;5020539;28;20482;-69
2022/05/19 03:09:10;;;;;;;1999.90;999.90;;;;;;;;;;5021261;28;20437;-69
2022/05/19 03:11:38;;;;;;;1999.90;999.90;;;;;;;;;;5017754;28;21455;-69
2022/05/19 03:14:06;;;;;;;1999.90;999.90;;;;;;;;;;5003748;28;20971;-69
2022/05/19 03:16:34;;;;;;;1999.90;999.90;;;;;;;;;;5019877;28;20684;-70
2022/05/19 03:19:02;;;;;;;1999.90;999.90;;;;;;;;;;5035277;28;20494;-69
2022/05/19 03:21:31;;;;;;;1999.90;999.90;;;;;;;;;;5033709;28;20402;-69
2022/05/19 03:23:58;;;;;;;1999.90;999.90;;;;;;;;;;5019485;28;20506;-69
2022/05/19 03:26:26;;;;;;;1999.90;999.90;;;;;;;;;;5019224;28;20478;-69
2022/05/19 03:28:57;;;;;;;1999.90;999.90;;;;;;;;;;5023974;28;21427;-70
2022/05/19 03:31:25;;;;;;;1999.90;999.90;;;;;;;;;;5036092;28;20444;-70
2022/05/19 03:33:52;;;;;;;1999.90;999.90;;;;;;;;;;5019145;28;20405;-69
2022/05/19 03:36:20;;;;;;;1999.90;999.90;;;;;;;;;;5018157;28;20895;-69
2022/05/19 03:38:49;;;;;;;1999.90;999.90;;;;;;;;;;5020463;28;20967;-69
2022/05/19 03:41:17;;;;;;;1999.90;999.90;;;;;;;;;;5032830;28;20414;-70
2022/05/19 03:43:45;;;;;;;1999.90;999.90;;;;;;;;;;5020381;28;20421;-69
2022/05/19 03:46:12;;;;;;;1999.90;999.90;;;;;;;;;;5020249;28;20880;-69
2022/05/19 03:48:40;;;;;;;1999.90;999.90;;;;;;;;;;5017542;28;21710;-69
2022/05/19 03:51:10;;;;;;;1999.90;999.90;;;;;;;;;;5023266;28;20508;-69
2022/05/19 03:53:38;;;;;;;1999.90;999.90;;;;;;;;;;5017349;28;20468;-70
2022/05/19 03:56:07;;;;;;;1999.90;999.90;;;;;;;;;;5018560;28;20496;-70
2022/05/19 03:58:34;;;;;;;1999.90;999.90;;;;;;;;;;5018692;28;21875;-70
2022/05/19 04:01:02;;;;;;;1999.90;999.90;;;;;;;;;;5018786;28;20442;-70
2022/05/19 04:03:29;;;;;;;1999.90;999.90;;;;;;;;;;4995903;28;20452;-69
2022/05/19 04:05:57;;;;;;;1999.90;999.90;;;;;;;;;;5015566;28;20418;-68
2022/05/19 04:08:25;;;;;;;1999.90;999.90;;;;;;;;;;5018376;28;20417;-69
2022/05/19 04:10:52;;;;;;;1999.90;999.90;;;;;;;;;;5014044;28;20540;-68
2022/05/19 04:13:21;;;;;;;1999.90;999.90;;;;;;;;;;5020733;28;20446;-68
2022/05/19 04:15:49;;;;;;;1999.90;999.90;;;;;;;;;;5017408;28;20402;-68
2022/05/19 04:18:16;;;;;;;1999.90;999.90;;;;;;;;;;5020805;28;20487;-68
2022/05/19 04:20:44;;;;;;;1999.90;999.90;;;;;;;;;;5016637;28;20416;-68
2022/05/19 04:23:12;;;;;;;1999.90;999.90;;;;;;;;;;5017850;28;20458;-68
2022/05/19 04:25:40;;;;;;;1999.90;999.90;;;;;;;;;;5019385;28;20939;-68
2022/05/19 04:28:08;;;;;;;1999.90;999.90;;;;;;;;;;5032292;28;20394;-68
2022/05/19 04:30:37;;;;;;;1999.90;999.90;;;;;;;;;;5017570;28;20442;-68
2022/05/19 04:33:05;;;;;;;1999.90;999.90;;;;;;;;;;5034528;28;20390;-68
2022/05/19 04:35:32;;;;;;;1999.90;999.90;;;;;;;;;;5019364;28;20417;-68
2022/05/19 04:38:05;;;;;;;1999.90;999.90;;;;;;;;;;5015897;28;20801;-68
2022/05/19 04:40:35;;;;;;;1999.90;999.90;;;;;;;;;;5018260;28;20496;-68
2022/05/19 04:43:06;;;;;;;1999.90;999.90;;;;;;;;;;5032444;28;20406;-68
2022/05/19 04:45:34;;;;;;;1999.90;999.90;;;;;;;;;;5019613;28;20820;-68
2022/05/19 04:48:03;;;;;;;1999.90;999.90;;;;;;;;;;5013298;28;20900;-68
2022/05/19 04:50:31;;;;;;;1999.90;999.90;;;;;;;;;;5019382;28;20398;-68
2022/05/19 04:52:59;;;;;;;1999.90;999.90;;;;;;;;;;5012834;28;20449;-69
2022/05/19 04:55:27;;;;;;;1999.90;999.90;;;;;;;;;;5016424;28;20429;-68
2022/05/19 04:57:54;;;;;;;1999.90;999.90;;;;;;;;;;5030840;28;20474;-68
2022/05/19 05:00:22;;;;;;;1999.90;999.90;;;;;;;;;;5032929;28;20962;-69
2022/05/19 05:02:50;;;;;;;1999.90;999.90;;;;;;;;;;5019986;28;20517;-68
2022/05/19 05:05:19;;;;;;;1999.90;999.90;;;;;;;;;;5014284;28;20425;-69
2022/05/19 05:07:46;;;;;;;1999.90;999.90;;;;;;;;;;5015401;28;20923;-71
2022/05/19 05:10:14;;;;;;;1999.90;999.90;;;;;;;;;;5015461;28;20419;-69
2022/05/19 05:12:41;;;;;;;1999.90;999.90;;;;;;;;;;5019547;28;20411;-73
2022/05/19 05:15:10;;;;;;;1999.90;999.90;;;;;;;;;;5017753;28;20489;-70
2022/05/19 05:17:37;;;;;;;1999.90;999.90;;;;;;;;;;5016880;28;21010;-69
2022/05/19 05:20:06;;;;;;;1999.90;999.90;;;;;;;;;;5012708;28;20417;-71
2022/05/19 05:22:36;;;;;;;1999.90;999.90;;;;;;;;;;5010130;28;20493;-70
2022/05/19 05:25:04;;;;;;;1999.90;999.90;;;;;;;;;;5012484;28;20567;-69
2022/05/19 05:27:33;;;;;;;1999.90;999.90;;;;;;;;;;5014659;28;20409;-69
2022/05/19 05:30:00;;;;;;;1999.90;999.90;;;;;;;;;;5014018;28;20500;-70
2022/05/19 05:32:28;;;;;;;1999.90;999.90;;;;;;;;;;5014241;28;20957;-70
2022/05/19 05:34:56;;;;;;;1999.90;999.90;;;;;;;;;;5011882;28;20405;-69
2022/05/19 05:37:23;;;;;;;1999.90;999.90;;;;;;;;;;5015023;28;20428;-69
2022/05/19 05:39:52;;;;;;;1999.90;999.90;;;;;;;;;;5015145;28;20407;-70
2022/05/19 05:42:20;;;;;;;1999.90;999.90;;;;;;;;;;5009939;28;20525;-69
2022/05/19 05:44:48;;;;;;;1999.90;999.90;;;;;;;;;;5030916;28;20444;-69
2022/05/19 05:47:16;;;;;;;1999.90;999.90;;;;;;;;;;5011686;28;20396;-70
2022/05/19 05:49:43;;;;;;;1999.90;999.90;;;;;;;;;;5004861;28;21021;-74
2022/05/19 05:52:11;;;;;;;1999.90;999.90;;;;;;;;;;5019901;28;20407;-70
2022/05/19 05:54:39;;;;;;;1999.90;999.90;;;;;;;;;;5019953;28;20394;-70
2022/05/19 05:57:08;;;;;;;1999.90;999.90;;;;;;;;;;5033839;28;20410;-71
2022/05/19 05:59:35;;;;;;;1999.90;999.90;;;;;;;;;;5021582;28;20495;-70
2022/05/19 06:02:03;;;;;;;1999.90;999.90;;;;;;;;;;5018114;28;20449;-72
2022/05/19 06:04:31;;;;;;;1999.90;999.90;;;;;;;;;;5016048;28;20410;-74
2022/05/19 06:07:00;;;;;;;1999.90;999.90;;;;;;;;;;5016331;28;20395;-71
2022/05/19 06:09:28;;;;;;;1999.90;999.90;;;;;;;;;;5011871;28;20513;-70
2022/05/19 06:11:55;;;;;;;1999.90;999.90;;;;;;;;;;5016261;28;20386;-75
2022/05/19 06:14:30;;;;;;;1999.90;999.90;;;;;;;;;;5030534;28;20927;-71
2022/05/19 06:16:58;;;;;;;1999.90;999.90;;;;;;;;;;5015773;28;20584;-70
2022/05/19 06:19:26;;;;;;;1999.90;999.90;;;;;;;;;;5002111;28;20471;-70
2022/05/19 06:21:54;;;;;;;1999.90;999.90;;;;;;;;;;5017210;28;20432;-70
2022/05/19 06:24:21;;;;;;;1999.90;999.90;;;;;;;;;;5020578;28;20410;-73
2022/05/19 06:26:49;;;;;;;1999.90;999.90;;;;;;;;;;5018970;28;20417;-70
2022/05/19 06:29:16;;;;;;;1999.90;999.90;;;;;;;;;;5021410;28;20511;-70
2022/05/19 06:31:45;;;;;;;1999.90;999.90;;;;;;;;;;5020110;28;21332;-70
2022/05/19 06:34:13;;;;;;;1999.90;999.90;;;;;;;;;;5016759;28;20398;-70
2022/05/19 06:36:46;;;;;;;1999.90;999.90;;;;;;;;;;5034703;28;20597;-70
2022/05/19 06:39:16;;;;;;;1999.90;999.90;;;;;;;;;;5021062;28;20568;-70
2022/05/19 06:42:01;;;;;;;1999.90;999.90;;;;;;;;;;5016456;28;20413;-70
2022/05/19 06:44:31;;;;;;;1999.90;999.90;;;;;;;;;;5032972;28;20417;-70
2022/05/19 06:47:00;;;;;;;1999.90;999.90;;;;;;;;;;5019412;28;20392;-70
2022/05/19 06:49:29;;;;;;;1999.90;999.90;;;;;;;;;;5016877;28;20409;-70
2022/05/19 06:51:56;;;;;;;1999.90;999.90;;;;;;;;;;5024534;28;21142;-70
2022/05/19 06:54:24;;;;;;;1999.90;999.90;;;;;;;;;;5018736;28;20401;-69
2022/05/19 06:56:50;;;;;;;1999.90;999.90;;;;;;;;;;5015466;28;20441;-70
2022/05/19 06:59:18;;;;;;;1999.90;999.90;;;;;;;;;;5017523;28;20544;-69
2022/05/19 07:01:47;;;;;;;1999.90;999.90;;;;;;;;;;5002692;28;20406;-70
2022/05/19 07:04:16;;;;;;;1999.90;999.90;;;;;;;;;;5017976;28;20398;-69
2022/05/19 07:06:44;;;;;;;1999.90;999.90;;;;;;;;;;5019099;28;20406;-69
2022/05/19 07:09:12;;;;;;;1999.90;999.90;;;;;;;;;;5018157;28;20414;-69
2022/05/19 07:11:40;;;;;;;1999.90;999.90;;;;;;;;;;5033209;28;21023;-70
2022/05/19 07:14:08;;;;;;;1999.90;999.90;;;;;;;;;;5021353;28;20440;-68
2022/05/19 07:16:35;;;;;;;1999.90;999.90;;;;;;;;;;5016868;28;20920;-70
2022/05/19 07:21:50;;;;;;;1999.90;999.90;;;;;;;;;;5017935;28;21158;-69
2022/05/19 07:24:20;;;;;;;1999.90;999.90;;;;;;;;;;5021728;28;20457;-70
2022/05/19 07:26:51;;;;;;;1999.90;999.90;;;;;;;;;;5033688;28;20437;-70
2022/05/19 07:29:19;;;;;;;1999.90;999.90;;;;;;;;;;5019688;28;20875;-70
2022/05/19 07:31:47;;;;;;;1999.90;999.90;;;;;;;;;;5032487;28;20583;-70
2022/05/19 07:34:16;;;;;;;1999.90;999.90;;;;;;;;;;5017587;28;20410;-71
2022/05/19 07:36:44;;;;;;;1999.90;999.90;;;;;;;;;;5018463;28;20512;-71
2022/05/19 07:39:13;;;;;;;1999.90;999.90;;;;;;;;;;5017342;28;20407;-70
2022/05/19 07:41:41;;;;;;;1999.90;999.90;;;;;;;;;;5016004;28;20390;-69
2022/05/19 07:44:09;;;;;;;1999.90;999.90;;;;;;;;;;5017555;28;20410;-69
2022/05/19 07:46:38;;;;;;;1999.90;999.90;;;;;;;;;;5036808;28;20394;-75
2022/05/19 07:49:05;;;;;;;1999.90;999.90;;;;;;;;;;5019397;28;20413;-70
2022/05/19 07:51:36;;;;;;;1999.90;999.90;;;;;;;;;;5017243;28;20419;-72
2022/05/19 07:54:04;;;;;;;1999.90;999.90;;;;;;;;;;5022210;28;20906;-71
2022/05/19 07:56:34;;;;;;;1999.90;999.90;;;;;;;;;;5014505;28;20500;-72
2022/05/19 07:59:02;;;;;;;1999.90;999.90;;;;;;;;;;5017654;28;21292;-71
2022/05/19 08:01:30;;;;;;;1999.90;999.90;;;;;;;;;;5016348;28;20406;-71
2022/05/19 08:03:58;;;;;;;1999.90;999.90;;;;;;;;;;5018436;28;20409;-71
2022/05/19 08:06:28;;;;;;;1999.90;999.90;;;;;;;;;;5015662;28;20908;-71
2022/05/19 08:08:58;;;;;;;1999.90;999.90;;;;;;;;;;5035313;28;20407;-71
2022/05/19 08:11:26;;;;;;;1999.90;999.90;;;;;;;;;;5039220;28;21384;-70
2022/05/19 08:16:40;;;;;;;1999.90;999.90;;;;;;;;;;5020163;28;20415;-70
2022/05/19 08:19:08;;;;;;;1999.90;999.90;;;;;;;;;;5021449;28;20501;-70
2022/05/19 08:21:37;;;;;;;1999.90;999.90;;;;;;;;;;5029979;28;20504;-70
2022/05/19 08:24:04;;;;;;;1999.90;999.90;;;;;;;;;;5014238;28;20541;-71
2022/05/19 08:26:33;;;;;;;1999.90;999.90;;;;;;;;;;5013195;28;20489;-70
2022/05/19 08:29:03;;;;;;;1999.90;999.90;;;;;;;;;;4997635;28;20536;-69
2022/05/19 08:31:31;;;;;;;1999.90;999.90;;;;;;;;;;5012896;28;20390;-71
2022/05/19 08:33:58;;;;;;;1999.90;999.90;;;;;;;;;;5014867;28;20438;-70
2022/05/19 08:36:27;;;;;;;1999.90;999.90;;;;;;;;;;5015307;28;20893;-71
2022/05/19 08:38:54;;;;;;;1999.90;999.90;;;;;;;;;;5021110;28;20436;-71
2022/05/19 08:41:26;;;;;;;1999.90;999.90;;;;;;;;;;5015506;28;20406;-70
2022/05/19 08:43:57;;;;;;;1999.90;999.90;;;;;;;;;;5016449;28;21175;-71
2022/05/19 08:46:28;;;;;;;1999.90;999.90;;;;;;;;;;5019322;28;20446;-71
2022/05/19 08:48:59;;;;;;;1999.90;999.90;;;;;;;;;;5015702;28;20417;-71
2022/05/19 08:51:30;;;;;;;1999.90;999.90;;;;;;;;;;5015623;28;20455;-71
2022/05/19 08:54:03;;;;;;;1999.90;999.90;;;;;;;;;;5016183;28;20444;-70
2022/05/19 08:56:33;;;;;;;1999.90;999.90;;;;;;;;;;5033143;28;20399;-71
2022/05/19 08:59:08;;;;;;;1999.90;999.90;;;;;;;;;;5016185;28;20411;-71
2022/05/19 09:01:40;;;;;;;1999.90;999.90;;;;;;;;;;5016225;28;20395;-73
2022/05/19 09:04:18;;;;;;;1999.90;999.90;;;;;;;;;;5032689;28;20449;-71
2022/05/19 09:09:44;;;;;;;1999.90;999.90;;;;;;;;;;5032983;28;20419;-70
2022/05/19 09:12:16;;;;;;;1999.90;999.90;;;;;;;;;;5015369;28;20375;-71
2022/05/19 09:14:43;;;;;;;1999.90;999.90;;;;;;;;;;5016503;28;20921;-71
2022/05/19 09:17:14;;;;;;;1999.90;999.90;;;;;;;;;;5032177;28;20390;-70
2022/05/19 09:19:43;;;;;;;1999.90;999.90;;;;;;;;;;5017114;28;20410;-70
2022/05/19 09:22:12;;;;;;;1999.90;999.90;;;;;;;;;;5014880;28;20482;-69
2022/05/19 09:24:41;;;;;;;1999.90;999.90;;;;;;;;;;5031654;28;20472;-70
2022/05/19 09:27:08;;;;;;;1999.90;999.90;;;;;;;;;;5012916;28;20386;-70
2022/05/19 09:29:37;;;;;;;1999.90;999.90;;;;;;;;;;5031229;28;20425;-70
2022/05/19 09:32:12;;;;;;;1999.90;999.90;;;;;;;;;;5016862;28;20880;-71
2022/05/19 09:34:42;;;;;;;1999.90;999.90;;;;;;;;;;5015177;28;20484;-70
2022/05/19 09:37:10;;;;;;;1999.90;999.90;;;;;;;;;;5013687;28;21265;-71
2022/05/19 09:39:46;;;;;;;1999.90;999.90;;;;;;;;;;5014731;28;20864;-71
2022/05/19 09:42:19;;;;;;;1999.90;999.90;;;;;;;;;;5015692;28;20394;-69
2022/05/19 09:44:50;;;;;;;1999.90;999.90;;;;;;;;;;5018505;28;20414;-71
2022/05/19 09:47:20;;;;;;;1999.90;999.90;;;;;;;;;;5031689;28;20513;-72
2022/05/19 09:49:58;;;;;;;1999.90;999.90;;;;;;;;;;5016248;28;20931;-71
2022/05/19 09:52:26;;;;;;;1999.90;999.90;;;;;;;;;;5016347;28;20538;-70
2022/05/19 09:54:56;;;;;;;1999.90;999.90;;;;;;;;;;5017950;28;20500;-71
2022/05/19 09:57:33;;;;;;;1999.90;999.90;;;;;;;;;;5013557;28;20503;-71
2022/05/19 10:00:05;;;;;;;1999.90;999.90;;;;;;;;;;5017232;28;20644;-71
2022/05/19 10:02:40;;;;;;;1999.90;999.90;;;;;;;;;;5014570;28;20893;-71
2022/05/19 10:05:37;;;;;;;1999.90;999.90;;;;;;;;;;5017861;28;20918;-71
2022/05/19 10:08:06;;;;;;;1999.90;999.90;;;;;;;;;;5016209;28;20504;-71
2022/05/19 10:10:36;;;;;;;1999.90;999.90;;;;;;;;;;5034582;28;20405;-71
2022/05/19 10:13:07;;;;;;;1999.90;999.90;;;;;;;;;;5014119;28;20445;-72
2022/05/19 10:15:40;;;;;;;1999.90;999.90;;;;;;;;;;5015352;28;20447;-70
2022/05/19 10:18:12;;;;;;;1999.90;999.90;;;;;;;;;;5029105;28;20575;-71
2022/05/19 10:20:44;;;;;;;1999.90;999.90;;;;;;;;;;5016441;28;20970;-71
2022/05/19 10:23:33;;;;;;;1999.90;999.90;;;;;;;;;;5021459;28;20534;-72
2022/05/19 10:26:11;;;;;;;1999.90;999.90;;;;;;;;;;5019696;28;20499;-71
2022/05/19 10:31:39;;;;;;;1999.90;999.90;;;;;;;;;;5013702;28;20921;-71
2022/05/19 10:34:22;;;;;;;1999.90;999.90;;;;;;;;;;5015636;28;20386;-71
2022/05/19 10:36:54;;;;;;;1999.90;999.90;;;;;;;;;;5015375;28;20394;-70
2022/05/19 10:39:38;;;;;;;1999.90;999.90;;;;;;;;;;5017933;28;20394;-71
2022/05/19 10:42:09;;;;;;;1999.90;999.90;;;;;;;;;;5015560;28;20437;-74
2022/05/19 10:44:45;;;;;;;1999.90;999.90;;;;;;;;;;5015118;28;20464;-71
2022/05/19 10:47:18;;;;;;;1999.90;999.90;;;;;;;;;;5031904;28;20837;-72
2022/05/19 10:49:59;;;;;;;1999.90;999.90;;;;;;;;;;5011322;28;20473;-71
2022/05/19 10:52:34;;;;;;;1999.90;999.90;;;;;;;;;;5011512;28;20404;-72
2022/05/19 10:55:08;;;;;;;1999.90;999.90;;;;;;;;;;4998768;28;20388;-71
2022/05/19 10:57:43;;;;;;;1999.90;999.90;;;;;;;;;;5015756;28;20869;-71
2022/05/19 11:00:17;;;;;;;1999.90;999.90;;;;;;;;;;5016160;28;20410;-71
2022/05/19 11:03:02;;;;;;;1999.90;999.90;;;;;;;;;;5016338;28;20405;-71
2022/05/19 11:05:39;;;;;;;1999.90;999.90;;;;;;;;;;5012656;28;20377;-71
2022/05/19 11:08:12;;;;;;;1999.90;999.90;;;;;;;;;;5016499;28;20502;-72
2022/05/19 11:10:43;;;;;;;1999.90;999.90;;;;;;;;;;5016916;28;20469;-72
2022/05/19 11:13:21;;;;;;;1999.90;999.90;;;;;;;;;;5019413;28;20412;-72
2022/05/19 11:15:51;;;;;;;1999.90;999.90;;;;;;;;;;5018166;28;20505;-72
2022/05/19 11:18:21;;;;;;;1999.90;999.90;;;;;;;;;;5022239;28;20480;-71
2022/05/19 11:21:01;;;;;;;1999.90;999.90;;;;;;;;;;5019568;28;20422;-71
2022/05/19 11:23:34;;;;;;;1999.90;999.90;;;;;;;;;;5019763;28;20479;-71
2022/05/19 11:28:56;;;;;;;1999.90;999.90;;;;;;;;;;5019462;28;20428;-71
2022/05/19 11:31:26;;;;;;;1999.90;999.90;;;;;;;;;;5033258;28;20565;-70
2022/05/19 11:33:55;;;;;;;1999.90;999.90;;;;;;;;;;5019423;28;20904;-70
2022/05/19 11:36:27;;;;;;;1999.90;999.90;;;;;;;;;;5019917;28;20400;-70
2022/05/19 11:38:58;;;;;;;1999.90;999.90;;;;;;;;;;5023913;28;20494;-72
2022/05/19 11:41:27;;;;;;;1999.90;999.90;;;;;;;;;;5022799;28;20964;-71
2022/05/19 11:44:00;;;;;;;1999.90;999.90;;;;;;;;;;5022944;28;20422;-72
2022/05/19 11:46:31;;;;;;;1999.90;999.90;;;;;;;;;;5020608;28;20394;-72
2022/05/19 11:57:31;;;;;;;1999.90;999.90;;;;;;;;;;5017034;28;20412;-73
2022/05/19 12:00:00;;;;;;;1999.90;999.90;;;;;;;;;;5020034;28;20394;-74
2022/05/19 12:02:40;;;;;;;1999.90;999.90;;;;;;;;;;5018271;28;20445;-71
2022/05/19 12:05:10;;;;;;;1999.90;999.90;;;;;;;;;;5004575;28;20517;-71
2022/05/19 12:07:43;;;;;;;1999.90;999.90;;;;;;;;;;5020534;28;20485;-72
2022/05/19 12:10:15;;;;;;;1999.90;999.90;;;;;;;;;;5019025;28;20418;-71
2022/05/19 12:12:45;;;;;;;1999.90;999.90;;;;;;;;;;5017305;28;20404;-72
2022/05/19 12:15:18;;;;;;;1999.90;999.90;;;;;;;;;;5015992;28;20710;-72
2022/05/19 12:17:47;;;;;;;1999.90;999.90;;;;;;;;;;5032457;28;20478;-72
2022/05/19 12:20:35;;;;;;;1999.90;999.90;;;;;;;;;;5021201;28;20394;-72
2022/05/19 12:23:14;;;;;;;1999.90;999.90;;;;;;;;;;5020040;28;20390;-72
2022/05/19 12:25:43;;;;;;;1999.90;999.90;;;;;;;;;;5031807;28;21243;-72
2022/05/19 12:28:27;;;;;;;1999.90;999.90;;;;;;;;;;5034710;28;20390;-72
2022/05/19 12:33:50;;;;;;;1999.90;999.90;;;;;;;;;;5040942;28;20522;-72
2022/05/19 12:36:24;;;;;;;1999.90;999.90;;;;;;;;;;5015644;28;20418;-72
2022/05/19 12:38:52;;;;;;;1999.90;999.90;;;;;;;;;;5018180;28;20393;-71
2022/05/19 12:44:30;;;;;;;1999.90;999.90;;;;;;;;;;5117829;27;20449;-71
2022/05/19 12:46:58;;;;;;;1999.90;999.90;;;;;;;;;;5112593;27;20530;-72
2022/05/19 12:49:28;;;;;;;1999.90;999.90;;;;;;;;;;5095449;27;20411;-71
2022/05/19 12:51:56;;;;;;;1999.90;999.90;;;;;;;;;;5113524;27;20399;-71
2022/05/19 12:54:25;;;;;;;1999.90;999.90;;;;;;;;;;5111773;27;20418;-71
2022/05/19 12:57:08;;;;;;;1999.90;999.90;;;;;;;;;;5113051;27;20466;-72
2022/05/19 12:59:42;;;;;;;1999.90;999.90;;;;;;;;;;5108990;27;21096;-71
2022/05/19 13:02:11;;;;;;;1999.90;999.90;;;;;;;;;;5108913;27;20457;-71
2022/05/19 13:04:44;;;;;;;1999.90;999.90;;;;;;;;;;5111925;27;21210;-73
2022/05/19 13:07:15;;;;;;;1999.90;999.90;;;;;;;;;;5114261;27;20407;-69
2022/05/19 13:09:51;;;;;;;1999.90;999.90;;;;;;;;;;5114142;27;20527;-71
2022/05/19 13:12:21;;;;;;;1999.90;999.90;;;;;;;;;;5109781;27;21084;-74
2022/05/19 13:14:54;;;;;;;1999.90;999.90;;;;;;;;;;5111391;27;20768;-71
2022/05/19 13:17:25;;;;;;;1999.90;999.90;;;;;;;;;;5100773;27;20399;-72
2022/05/19 13:19:53;;;;;;;1999.90;999.90;;;;;;;;;;5110564;27;20387;-71
2022/05/19 13:22:22;;;;;;;1999.90;999.90;;;;;;;;;;5113245;27;20415;-72
2022/05/19 13:24:50;;;;;;;1999.90;999.90;;;;;;;;;;5114277;27;20481;-72
2022/05/19 13:30:21;;;;;;;1999.90;999.90;;;;;;;;;;5109912;27;20409;-72
2022/05/19 13:32:49;;;;;;;1999.90;999.90;;;;;;;;;;5113206;27;20464;-73
2022/05/19 13:35:18;;;;;;;1999.90;999.90;;;;;;;;;;5113836;27;20422;-70
2022/05/19 13:37:46;;;;;;;1999.90;999.90;;;;;;;;;;5114022;27;20382;-71
2022/05/19 13:40:16;;;;;;;1999.90;999.90;;;;;;;;;;5101432;27;20395;-73
2022/05/19 13:42:45;;;;;;;1999.90;999.90;;;;;;;;;;5106965;27;20451;-69
2022/05/19 13:45:17;;;;;;;1999.90;999.90;;;;;;;;;;5104559;27;20430;-69
2022/05/19 13:47:46;;;;;;;1999.90;999.90;;;;;;;;;;5106829;27;20495;-71
2022/05/19 13:50:17;;;;;;;1999.90;999.90;;;;;;;;;;5107811;27;22385;-70
2022/05/19 13:52:50;;;;;;;1999.90;999.90;;;;;;;;;;5112303;27;20409;-70
2022/05/19 13:55:22;;;;;;;1999.90;999.90;;;;;;;;;;5114551;27;20465;-70
2022/05/19 13:57:50;;;;;;;1999.90;999.90;;;;;;;;;;5077559;28;20476;-70
2022/05/19 14:00:18;;;;;;;1999.90;999.90;;;;;;;;;;5092883;27;20452;-70
2022/05/19 14:02:48;;;;;;;1999.90;999.90;;;;;;;;;;5095282;27;20426;-69
2022/05/19 14:05:18;;;;;;;1999.90;999.90;;;;;;;;;;5093663;27;20506;-71
2022/05/19 14:07:46;;;;;;;1999.90;999.90;;;;;;;;;;5093839;27;20391;-71
2022/05/19 14:10:16;;;;;;;1999.90;999.90;;;;;;;;;;5092609;27;20402;-71
2022/05/19 14:12:45;;;;;;;1999.90;999.90;;;;;;;;;;5093490;27;20395;-69
2022/05/19 14:15:20;;;;;;;1999.90;999.90;;;;;;;;;;5108682;27;20517;-70
2022/05/19 14:17:52;;;;;;;1999.90;999.90;;;;;;;;;;5086652;27;20383;-69
2022/05/19 14:20:23;;;;;;;1999.90;999.90;;;;;;;;;;5092273;27;20500;-71
2022/05/19 14:22:51;;;;;;;1999.90;999.90;;;;;;;;;;5090262;27;20430;-71
2022/05/19 14:25:21;;;;;;;1999.90;999.90;;;;;;;;;;5094190;27;20510;-73
2022/05/19 14:27:51;;;;;;;1999.90;999.90;;;;;;;;;;5093914;27;20396;-70
2022/05/19 14:30:19;;;;;;;1999.90;999.90;;;;;;;;;;5084194;27;22478;-70